createdAt,value
2023-05-22T00:00:10.108Z,13.80
2023-05-22T00:02:58.972Z,13.80
2023-05-22T00:05:26.366Z,13.70
2023-05-22T00:07:54.021Z,13.60
2023-05-22T00:10:21.360Z,13.60
2023-05-22T00:12:49.129Z,13.60
2023-05-22T00:15:16.453Z,13.50
2023-05-22T00:17:44.599Z,13.50
2023-05-22T00:20:12.347Z,13.50
2023-05-22T00:22:39.991Z,13.50
2023-05-22T00:25:07.917Z,13.50
2023-05-22T00:27:35.603Z,13.60
2023-05-22T00:30:03.658Z,13.60
2023-05-22T00:32:31.882Z,13.60
2023-05-22T00:34:59.343Z,13.60
2023-05-22T00:37:27.346Z,13.60
2023-05-22T00:39:54.598Z,13.50
2023-05-22T00:42:23.124Z,13.60
2023-05-22T00:44:50.416Z,13.60
2023-05-22T00:47:18.223Z,13.60
2023-05-22T00:49:46.547Z,13.50
2023-05-22T00:52:15.125Z,13.50
2023-05-22T00:54:43.404Z,13.50
2023-05-22T00:57:11.302Z,13.50
2023-05-22T00:59:38.693Z,13.40
2023-05-22T01:02:07.091Z,13.30
2023-05-22T01:04:35.278Z,13.20
2023-05-22T01:07:03.263Z,13.10
2023-05-22T01:09:30.723Z,13.00
2023-05-22T01:12:01.305Z,13.00
2023-05-22T01:14:38.404Z,13.00
2023-05-22T01:17:23.536Z,13.00
2023-05-22T01:20:29.537Z,13.00
2023-05-22T01:23:10.604Z,12.90
2023-05-22T01:25:40.711Z,12.90
2023-05-22T01:28:29.681Z,12.90
2023-05-22T01:31:09.160Z,13.00
2023-05-22T01:33:45.123Z,13.00
2023-05-22T01:36:16.025Z,12.90
2023-05-22T01:38:44.033Z,12.90
2023-05-22T01:41:12.265Z,12.90
2023-05-22T01:43:40.294Z,12.90
2023-05-22T01:46:09.510Z,12.90
2023-05-22T01:48:37.260Z,12.80
2023-05-22T01:51:29.839Z,12.80
2023-05-22T01:54:07.467Z,12.80
2023-05-22T01:56:46.913Z,12.80
2023-05-22T01:59:16.659Z,12.80
2023-05-22T02:01:44.601Z,12.80
2023-05-22T02:04:14.744Z,12.80
2023-05-22T02:06:44.256Z,12.70
2023-05-22T02:09:13.579Z,12.80
2023-05-22T02:11:42.482Z,12.70
2023-05-22T02:14:12.331Z,12.70
2023-05-22T02:16:40.217Z,12.70
2023-05-22T02:19:07.982Z,12.60
2023-05-22T02:21:37.174Z,12.60
2023-05-22T02:24:05.066Z,12.60
2023-05-22T02:26:32.558Z,12.60
2023-05-22T02:29:01.581Z,12.60
2023-05-22T02:31:29.439Z,12.60
2023-05-22T02:33:58.045Z,12.60
2023-05-22T02:36:26.288Z,12.50
2023-05-22T02:38:55.744Z,12.50
2023-05-22T02:41:23.709Z,12.50
2023-05-22T02:43:51.359Z,12.50
2023-05-22T02:46:18.931Z,12.50
2023-05-22T02:48:47.042Z,12.50
2023-05-22T02:51:14.385Z,12.50
2023-05-22T02:53:42.101Z,12.50
2023-05-22T02:56:13.217Z,12.50
2023-05-22T02:58:41.147Z,12.50
2023-05-22T03:01:10.478Z,12.40
2023-05-22T03:03:38.351Z,12.50
2023-05-22T03:06:06.350Z,12.50
2023-05-22T03:08:34.922Z,12.50
2023-05-22T03:11:02.996Z,12.50
2023-05-22T03:13:30.600Z,12.50
2023-05-22T03:15:59.790Z,12.50
2023-05-22T03:18:28.004Z,12.50
2023-05-22T03:20:56.328Z,12.50
2023-05-22T03:23:25.450Z,12.60
2023-05-22T03:25:53.293Z,12.60
2023-05-22T03:28:22.160Z,12.70
2023-05-22T03:30:49.778Z,12.70
2023-05-22T03:33:22.560Z,12.80
2023-05-22T03:35:50.223Z,12.90
2023-05-22T03:38:17.785Z,13.00
2023-05-22T03:40:45.431Z,13.10
2023-05-22T03:43:13.237Z,13.20
2023-05-22T03:45:40.679Z,13.30
2023-05-22T03:48:10.675Z,13.50
2023-05-22T03:50:38.436Z,13.60
2023-05-22T03:53:06.803Z,13.70
2023-05-22T03:55:34.332Z,13.80
2023-05-22T03:58:01.821Z,13.90
2023-05-22T04:00:29.128Z,14.00
2023-05-22T04:02:58.808Z,14.10
2023-05-22T04:05:26.599Z,14.30
2023-05-22T04:07:54.282Z,14.40
2023-05-22T04:10:23.574Z,14.50
2023-05-22T04:12:51.375Z,14.60
2023-05-22T04:15:18.706Z,14.70
2023-05-22T04:17:47.459Z,14.80
2023-05-22T04:20:14.942Z,15.00
2023-05-22T04:22:42.508Z,15.10
2023-05-22T04:25:10.371Z,15.10
2023-05-22T04:27:38.110Z,15.30
2023-05-22T04:30:07.539Z,15.30
2023-05-22T04:32:36.445Z,15.30
2023-05-22T04:35:03.989Z,15.40
2023-05-22T04:37:32.046Z,15.40
2023-05-22T04:40:03.284Z,15.40
2023-05-22T04:42:34.556Z,15.50
2023-05-22T04:45:01.854Z,15.50
2023-05-22T04:47:31.988Z,15.50
2023-05-22T04:50:04.927Z,15.60
2023-05-22T04:52:32.653Z,15.60
2023-05-22T04:55:01.134Z,15.70
2023-05-22T04:57:29.876Z,15.80
2023-05-22T04:59:57.578Z,15.90
2023-05-22T05:02:25.512Z,15.90
2023-05-22T05:04:53.259Z,15.90
2023-05-22T05:07:21.695Z,15.90
2023-05-22T05:09:49.247Z,15.90
2023-05-22T05:12:17.335Z,16.00
2023-05-22T05:14:44.788Z,16.00
2023-05-22T05:17:15.790Z,16.10
2023-05-22T05:19:43.274Z,16.10
2023-05-22T05:22:11.268Z,16.10
2023-05-22T05:24:38.717Z,16.10
2023-05-22T05:27:06.403Z,16.20
2023-05-22T05:29:33.949Z,16.20
2023-05-22T05:32:07.562Z,16.20
2023-05-22T05:35:01.217Z,16.30
2023-05-22T05:37:41.992Z,16.40
2023-05-22T05:40:09.819Z,16.50
2023-05-22T05:42:41.447Z,16.60
2023-05-22T05:45:10.970Z,16.80
2023-05-22T05:47:38.609Z,16.90
2023-05-22T05:50:07.212Z,17.00
2023-05-22T05:52:36.287Z,17.20
2023-05-22T05:55:10.139Z,17.30
2023-05-22T05:57:38.580Z,17.40
2023-05-22T06:00:11.736Z,17.60
2023-05-22T06:02:43.721Z,17.70
2023-05-22T06:05:24.542Z,17.90
2023-05-22T06:08:00.280Z,18.10
2023-05-22T06:25:26.140Z,18.20
2023-05-22T06:27:54.108Z,19.10
2023-05-22T06:30:38.391Z,19.10
2023-05-22T06:33:10.389Z,19.20
2023-05-22T06:35:38.049Z,19.20
2023-05-22T06:38:06.159Z,19.30
2023-05-22T06:40:34.112Z,19.30
2023-05-22T06:43:12.559Z,19.30
2023-05-22T06:45:52.442Z,19.30
2023-05-22T06:48:38.884Z,19.40
2023-05-22T06:51:15.125Z,19.40
2023-05-22T06:53:43.096Z,19.40
2023-05-22T06:56:18.454Z,19.40
2023-05-22T06:58:54.121Z,19.50
2023-05-22T07:01:24.647Z,19.50
2023-05-22T07:04:09.758Z,19.60
2023-05-22T07:06:50.132Z,19.60
2023-05-22T07:09:19.132Z,19.70
2023-05-22T07:11:49.169Z,19.70
2023-05-22T07:14:18.183Z,19.70
2023-05-22T07:16:46.396Z,19.80
2023-05-22T07:19:19.402Z,19.80
2023-05-22T07:21:46.950Z,19.90
2023-05-22T07:24:18.396Z,20.00
2023-05-22T07:26:46.746Z,20.00
2023-05-22T07:29:15.038Z,20.10
2023-05-22T07:31:42.761Z,20.20
2023-05-22T07:34:11.557Z,20.30
2023-05-22T07:36:39.089Z,20.30
2023-05-22T07:39:09.846Z,20.40
2023-05-22T07:41:41.184Z,20.40
2023-05-22T07:44:12.333Z,20.50
2023-05-22T07:46:41.383Z,20.60
2023-05-22T07:49:19.623Z,20.60
2023-05-22T07:51:47.567Z,20.60
2023-05-22T07:54:18.165Z,20.60
2023-05-22T07:56:49.648Z,20.60
2023-05-22T07:59:19.778Z,20.60
2023-05-22T08:01:47.251Z,20.60
2023-05-22T08:04:15.250Z,20.80
2023-05-22T08:06:44.401Z,20.80
2023-05-22T08:09:12.279Z,20.80
2023-05-22T08:11:42.195Z,20.90
2023-05-22T08:14:10.152Z,21.00
2023-05-22T08:16:37.759Z,21.10
2023-05-22T08:19:07.328Z,21.10
2023-05-22T08:21:35.962Z,21.10
2023-05-22T08:24:03.780Z,21.10
2023-05-22T08:26:33.251Z,21.20
2023-05-22T08:29:01.372Z,21.30
2023-05-22T08:31:29.478Z,21.30
2023-05-22T08:34:03.227Z,21.30
2023-05-22T08:36:31.745Z,21.40
2023-05-22T08:38:59.815Z,21.40
2023-05-22T08:41:28.065Z,21.30
2023-05-22T08:43:55.887Z,21.40
2023-05-22T08:46:26.532Z,21.40
2023-05-22T08:48:57.390Z,21.40
2023-05-22T08:51:31.452Z,21.50
2023-05-22T08:54:00.574Z,21.40
2023-05-22T08:56:29.571Z,21.30
2023-05-22T08:58:59.920Z,21.10
2023-05-22T09:01:29.459Z,21.30
2023-05-22T09:04:02.118Z,21.30
2023-05-22T09:06:30.136Z,21.40
2023-05-22T09:08:59.147Z,21.30
2023-05-22T09:11:26.667Z,21.30
2023-05-22T09:14:07.593Z,21.40
2023-05-22T09:16:47.678Z,21.40
2023-05-22T09:19:16.027Z,21.50
2023-05-22T09:21:44.621Z,21.30
2023-05-22T09:24:12.547Z,21.40
2023-05-22T09:26:40.721Z,21.50
2023-05-22T09:29:09.006Z,21.60
2023-05-22T09:31:43.824Z,21.60
2023-05-22T09:34:17.641Z,21.60
2023-05-22T09:36:44.992Z,21.70
2023-05-22T09:39:12.887Z,21.80
2023-05-22T09:41:40.419Z,21.80
2023-05-22T09:44:15.445Z,22.00
2023-05-22T09:46:45.681Z,22.00
2023-05-22T09:49:16.069Z,22.10
2023-05-22T09:51:48.223Z,22.10
2023-05-22T09:54:16.322Z,22.00
2023-05-22T09:56:44.839Z,22.20
2023-05-22T09:59:13.923Z,22.50
2023-05-22T10:01:42.899Z,22.70
2023-05-22T10:04:16.479Z,22.50
2023-05-22T10:06:50.237Z,22.40
2023-05-22T10:09:23.562Z,22.50
2023-05-22T10:11:53.410Z,22.50
2023-05-22T10:14:21.441Z,22.60
2023-05-22T10:16:48.979Z,22.50
2023-05-22T10:19:17.929Z,22.50
2023-05-22T10:21:47.362Z,22.80
2023-05-22T10:24:16.148Z,22.50
2023-05-22T10:26:44.380Z,22.20
2023-05-22T10:29:18.709Z,22.60
2023-05-22T10:31:55.779Z,22.90
2023-05-22T10:34:42.489Z,23.00
2023-05-22T10:37:36.052Z,23.00
2023-05-22T10:40:10.710Z,23.20
2023-05-22T10:42:38.692Z,23.10
2023-05-22T10:45:10.861Z,22.70
2023-05-22T10:47:38.255Z,22.50
2023-05-22T10:50:11.124Z,22.50
2023-05-22T10:52:40.010Z,22.50
2023-05-22T10:55:09.775Z,22.80
2023-05-22T10:57:40.709Z,22.90
2023-05-22T11:00:16.212Z,23.10
2023-05-22T11:02:47.320Z,23.00
2023-05-22T11:05:22.883Z,23.00
2023-05-22T11:07:50.254Z,22.90
2023-05-22T11:10:27.651Z,23.10
2023-05-22T11:13:12.170Z,23.00
2023-05-22T11:15:45.639Z,23.00
2023-05-22T11:18:14.647Z,23.50
2023-05-22T11:20:43.409Z,23.60
2023-05-22T11:23:11.722Z,24.00
2023-05-22T11:25:41.543Z,24.30
2023-05-22T11:28:10.804Z,23.70
2023-05-22T11:30:38.974Z,23.70
2023-05-22T11:33:06.827Z,24.10
2023-05-22T11:35:34.894Z,24.20
2023-05-22T11:38:06.338Z,24.20
2023-05-22T11:40:34.094Z,24.10
2023-05-22T11:43:01.868Z,23.90
2023-05-22T11:45:29.424Z,24.40
2023-05-22T11:47:57.074Z,24.60
2023-05-22T11:50:40.108Z,24.50
2023-05-22T11:53:10.964Z,24.40
2023-05-22T11:55:38.479Z,24.50
2023-05-22T11:58:05.820Z,24.80
2023-05-22T12:00:33.557Z,25.10
2023-05-22T12:03:01.022Z,25.00
2023-05-22T12:05:31.547Z,25.00
2023-05-22T12:07:59.045Z,25.20
2023-05-22T12:10:26.709Z,25.40
2023-05-22T12:12:54.983Z,25.20
2023-05-22T12:15:22.575Z,25.10
2023-05-22T12:17:50.083Z,25.10
2023-05-22T12:20:17.967Z,24.60
2023-05-22T12:22:45.411Z,23.90
2023-05-22T12:25:16.544Z,24.00
2023-05-22T12:27:47.938Z,23.90
2023-05-22T12:30:16.293Z,23.80
2023-05-22T12:32:50.718Z,23.60
2023-05-22T12:35:19.322Z,23.70
2023-05-22T12:37:51.250Z,23.80
2023-05-22T12:40:19.594Z,23.90
2023-05-22T12:42:48.688Z,23.80
2023-05-22T12:45:18.113Z,23.80
2023-05-22T12:47:46.274Z,24.20
2023-05-22T12:50:14.690Z,24.50
2023-05-22T12:52:42.219Z,24.20
2023-05-22T12:55:11.781Z,24.40
2023-05-22T12:57:39.217Z,24.90
2023-05-22T13:00:07.824Z,25.20
2023-05-22T13:02:35.791Z,25.70
2023-05-22T13:05:03.994Z,25.80
2023-05-22T13:07:32.694Z,25.50
2023-05-22T13:10:00.660Z,25.30
2023-05-22T13:12:28.420Z,25.40
2023-05-22T13:14:56.626Z,25.80
2023-05-22T13:17:24.507Z,26.00
2023-05-22T13:19:55.050Z,25.70
2023-05-22T13:22:23.834Z,25.70
2023-05-22T13:24:52.422Z,25.80
2023-05-22T13:27:19.961Z,25.60
2023-05-22T13:29:47.840Z,25.80
2023-05-22T13:32:15.914Z,26.30
2023-05-22T13:34:43.741Z,26.60
2023-05-22T13:37:12.122Z,26.70
2023-05-22T13:39:40.066Z,26.80
2023-05-22T13:42:07.640Z,26.90
2023-05-22T13:44:35.509Z,27.00
2023-05-22T13:47:03.076Z,26.80
2023-05-22T13:49:30.870Z,26.40
2023-05-22T13:51:58.381Z,26.70
2023-05-22T13:54:26.530Z,26.40
2023-05-22T13:56:54.075Z,26.00
2023-05-22T13:59:21.808Z,25.60
2023-05-22T14:01:49.252Z,24.30
2023-05-22T14:04:17.039Z,24.80
2023-05-22T14:06:44.753Z,24.50
2023-05-22T14:09:12.676Z,24.90
2023-05-22T14:11:40.505Z,25.00
2023-05-22T14:14:09.332Z,24.70
2023-05-22T14:16:36.814Z,24.40
2023-05-22T14:19:04.955Z,24.60
2023-05-22T14:21:33.151Z,25.90
2023-05-22T14:24:02.554Z,26.30
2023-05-22T14:26:30.193Z,28.60
2023-05-22T14:28:58.211Z,31.80
2023-05-22T14:31:29.320Z,36.10
2023-05-22T14:33:57.320Z,39.00
2023-05-22T14:36:24.906Z,38.60
2023-05-22T14:41:24.761Z,38.10
2023-05-22T14:43:52.718Z,37.50
2023-05-22T14:46:20.489Z,34.10
2023-05-22T14:53:47.833Z,35.40
2023-05-22T14:56:15.287Z,44.10
2023-05-22T14:58:43.067Z,41.80
2023-05-22T15:01:10.705Z,42.40
2023-05-22T15:03:38.630Z,41.30
2023-05-22T15:06:06.472Z,41.80
2023-05-22T15:08:34.192Z,41.00
2023-05-22T15:11:01.867Z,39.30
2023-05-22T15:13:29.555Z,38.80
2023-05-22T15:15:58.453Z,35.60
2023-05-22T15:18:27.321Z,37.40
2023-05-22T15:20:55.099Z,36.20
2023-05-22T15:23:25.447Z,37.80
2023-05-22T15:25:54.133Z,35.50
2023-05-22T15:28:22.510Z,35.90
2023-05-22T15:30:50.087Z,36.20
2023-05-22T15:33:18.084Z,37.30
2023-05-22T15:35:47.378Z,36.00
2023-05-22T15:38:16.121Z,36.40
2023-05-22T15:40:44.391Z,37.20
2023-05-22T15:43:12.344Z,40.50
2023-05-22T15:45:40.443Z,41.30
2023-05-22T15:48:08.681Z,42.10
2023-05-22T15:50:36.347Z,41.20
2023-05-22T15:53:04.119Z,42.50
2023-05-22T15:55:31.572Z,42.00
2023-05-22T15:57:59.774Z,44.90
2023-05-22T16:00:27.787Z,44.10
2023-05-22T16:02:55.603Z,42.50
2023-05-22T16:05:23.350Z,40.90
2023-05-22T16:07:51.147Z,42.00
2023-05-22T16:10:18.872Z,43.50
2023-05-22T16:12:46.808Z,43.10
2023-05-22T16:15:14.345Z,44.00
2023-05-22T16:17:42.281Z,44.50
2023-05-22T16:20:10.146Z,44.00
2023-05-22T16:22:48.177Z,44.20
2023-05-22T16:25:17.431Z,40.80
2023-05-22T16:27:45.668Z,41.90
2023-05-22T16:30:16.842Z,40.80
2023-05-22T16:32:48.440Z,42.30
2023-05-22T16:35:16.565Z,39.00
2023-05-22T16:37:44.396Z,40.50
2023-05-22T16:40:12.180Z,39.50
2023-05-22T16:42:40.218Z,39.60
2023-05-22T16:45:08.175Z,37.20
2023-05-22T16:47:36.262Z,36.70
2023-05-22T16:50:04.167Z,37.60
2023-05-22T16:52:33.192Z,39.00
2023-05-22T16:55:03.839Z,37.40
2023-05-22T16:57:31.566Z,37.50
2023-05-22T16:59:59.428Z,37.50
2023-05-22T17:02:27.315Z,37.50
2023-05-22T17:04:54.928Z,35.70
2023-05-22T17:07:23.553Z,36.00
2023-05-22T17:09:51.341Z,33.30
2023-05-22T17:12:19.169Z,32.20
2023-05-22T17:14:47.079Z,31.30
2023-05-22T17:17:14.916Z,32.30
2023-05-22T17:19:42.468Z,32.90
2023-05-22T17:22:10.328Z,33.60
2023-05-22T17:24:37.822Z,33.40
2023-05-22T17:27:06.796Z,32.70
2023-05-22T17:29:34.672Z,31.50
2023-05-22T17:32:04.948Z,31.70
2023-05-22T17:34:33.681Z,32.50
2023-05-22T17:37:01.465Z,32.50
2023-05-22T17:39:29.890Z,32.60
2023-05-22T17:41:59.672Z,32.50
2023-05-22T17:44:28.059Z,30.10
2023-05-22T17:46:56.022Z,28.30
2023-05-22T17:49:23.619Z,26.90
2023-05-22T17:51:51.409Z,26.10
2023-05-22T17:54:18.936Z,24.90
2023-05-22T17:56:46.943Z,24.20
2023-05-22T17:59:14.646Z,24.00
2023-05-22T18:01:42.435Z,23.50
2023-05-22T18:04:11.351Z,23.30
2023-05-22T18:06:39.176Z,22.90
2023-05-22T18:09:07.934Z,22.50
2023-05-22T18:11:35.768Z,22.40
2023-05-22T18:14:03.797Z,21.90
2023-05-22T18:16:31.651Z,21.90
2023-05-22T18:18:59.311Z,21.60
2023-05-22T18:21:27.117Z,21.40
2023-05-22T18:23:56.056Z,21.30
2023-05-22T18:26:23.924Z,21.10
2023-05-22T18:28:51.503Z,20.90
2023-05-22T18:31:19.356Z,20.70
2023-05-22T18:33:47.419Z,20.50
2023-05-22T18:36:17.281Z,20.30
2023-05-22T18:38:45.253Z,20.10
2023-05-22T18:41:13.681Z,19.80
2023-05-22T18:43:41.615Z,19.70
2023-05-22T18:46:10.592Z,19.40
2023-05-22T18:48:38.691Z,19.30
2023-05-22T18:51:08.526Z,19.20
2023-05-22T18:53:36.227Z,19.20
2023-05-22T18:56:04.192Z,19.00
2023-05-22T18:58:32.089Z,18.90
2023-05-22T19:01:02.022Z,18.80
2023-05-22T19:03:29.610Z,18.70
2023-05-22T19:05:59.123Z,18.70
2023-05-22T19:08:26.888Z,18.60
2023-05-22T19:10:59.971Z,18.50
2023-05-22T19:13:27.475Z,18.60
2023-05-22T19:15:57.343Z,18.50
2023-05-22T19:18:25.342Z,18.50
2023-05-22T19:20:53.160Z,18.40
2023-05-22T19:23:20.738Z,18.30
2023-05-22T19:25:48.930Z,18.30
2023-05-22T19:28:16.443Z,18.20
2023-05-22T19:30:44.999Z,18.20
2023-05-22T19:33:14.855Z,18.10
2023-05-22T19:35:43.012Z,18.00
2023-05-22T19:38:10.761Z,17.90
2023-05-22T19:40:38.811Z,17.90
2023-05-22T19:43:07.181Z,17.80
2023-05-22T19:45:35.171Z,17.70
2023-05-22T19:48:02.684Z,17.70
2023-05-22T19:50:32.399Z,17.60
2023-05-22T19:52:59.877Z,17.50
2023-05-22T19:55:27.897Z,17.40
2023-05-22T19:57:56.975Z,17.40
2023-05-22T20:00:28.523Z,17.30
2023-05-22T20:02:56.377Z,17.20
2023-05-22T20:05:26.110Z,17.20
2023-05-22T20:07:54.355Z,17.10
2023-05-22T20:10:23.888Z,17.00
2023-05-22T20:12:54.252Z,17.00
2023-05-22T20:15:25.151Z,17.00
2023-05-22T20:17:53.707Z,17.00
2023-05-22T20:20:24.690Z,17.00
2023-05-22T20:22:53.913Z,17.00
2023-05-22T20:25:21.979Z,17.10
2023-05-22T20:27:50.550Z,17.10
2023-05-22T20:30:18.496Z,17.10
2023-05-22T20:32:46.936Z,17.10
2023-05-22T20:35:18.753Z,17.00
2023-05-22T20:37:46.770Z,17.00
2023-05-22T20:40:18.091Z,17.00
2023-05-22T20:42:46.254Z,16.90
2023-05-22T20:45:15.097Z,16.90
2023-05-22T20:47:44.145Z,16.80
2023-05-22T20:50:12.227Z,16.70
2023-05-22T20:52:39.731Z,16.60
2023-05-22T20:55:08.714Z,16.60
2023-05-22T20:57:36.426Z,16.40
2023-05-22T21:00:06.581Z,16.40
2023-05-22T21:02:34.153Z,16.40
2023-05-22T21:05:02.262Z,16.30
2023-05-22T21:07:30.200Z,16.20
2023-05-22T21:09:58.238Z,16.10
2023-05-22T21:12:26.287Z,16.10
2023-05-22T21:14:54.333Z,16.00
2023-05-22T21:17:23.395Z,15.90
2023-05-22T21:19:51.257Z,15.90
2023-05-22T21:22:18.790Z,15.90
2023-05-22T21:24:46.753Z,15.90
2023-05-22T21:27:14.584Z,15.90
2023-05-22T21:29:42.342Z,15.80
2023-05-22T21:32:09.924Z,15.70
2023-05-22T21:34:37.934Z,15.70
2023-05-22T21:37:07.906Z,15.60
2023-05-22T21:39:35.964Z,15.60
2023-05-22T21:42:04.216Z,15.50
2023-05-22T21:44:32.316Z,15.50
2023-05-22T21:47:00.012Z,15.40
2023-05-22T21:49:28.112Z,15.40
2023-05-22T21:51:55.959Z,15.40
2023-05-22T21:54:23.896Z,15.30
2023-05-22T21:56:52.572Z,15.40
2023-05-22T21:59:20.369Z,15.40
2023-05-22T22:01:48.349Z,15.40
2023-05-22T22:04:16.292Z,15.40
2023-05-22T22:06:45.391Z,15.40
2023-05-22T22:09:13.368Z,15.40
2023-05-22T22:11:41.141Z,15.30
2023-05-22T22:14:08.956Z,15.30
2023-05-22T22:16:36.633Z,15.30
2023-05-22T22:19:05.118Z,15.30
2023-05-22T22:21:33.850Z,15.20
2023-05-22T22:24:01.650Z,15.20
2023-05-22T22:26:30.207Z,15.20
2023-05-22T22:29:00.184Z,15.20
2023-05-22T22:31:27.815Z,15.20
2023-05-22T22:33:55.591Z,15.20
2023-05-22T22:36:23.414Z,15.20
2023-05-22T22:38:51.306Z,15.10
2023-05-22T22:41:18.756Z,15.20
2023-05-22T22:43:46.504Z,15.20
2023-05-22T22:46:14.216Z,15.20
2023-05-22T22:48:41.982Z,15.20
2023-05-22T22:51:09.716Z,15.10
2023-05-22T22:53:38.442Z,15.10
2023-05-22T22:56:06.125Z,15.10
2023-05-22T22:58:33.976Z,15.00
2023-05-22T23:01:01.710Z,15.00
2023-05-22T23:03:29.596Z,15.00
2023-05-22T23:05:57.951Z,15.00
2023-05-22T23:08:26.178Z,14.90
2023-05-22T23:10:54.176Z,14.90
2023-05-22T23:13:22.004Z,14.80
2023-05-22T23:15:49.775Z,14.80
2023-05-22T23:18:17.786Z,14.80
2023-05-22T23:20:45.472Z,14.70
2023-05-22T23:23:13.322Z,14.70
2023-05-22T23:25:42.033Z,14.60
2023-05-22T23:28:10.096Z,14.50
2023-05-22T23:30:37.650Z,14.50
2023-05-22T23:33:06.212Z,14.40
2023-05-22T23:35:33.964Z,14.40
2023-05-22T23:38:01.754Z,14.30
2023-05-22T23:40:29.348Z,14.30
2023-05-22T23:42:57.108Z,14.20
2023-05-22T23:45:25.028Z,14.10
2023-05-22T23:47:52.830Z,14.10
2023-05-22T23:50:20.399Z,14.00
2023-05-22T23:52:48.473Z,13.90
2023-05-22T23:55:16.332Z,13.90
2023-05-22T23:57:44.122Z,13.80
